sensor_id;sensor_type;location;lat;lon;timestamp;P1;durP1;ratioP1;P2;durP2;ratioP2
14732;SDS011;7457;50.960;6.830;2023-11-21T00:02:17;17.30;;;11.50;;
14732;SDS011;7457;50.960;6.830;2023-11-21T00:04:43;19.88;;;11.52;;
14732;SDS011;7457;50.960;6.830;2023-11-21T00:07:09;12.90;;;10.90;;
14732;SDS011;7457;50.960;6.830;2023-11-21T00:09:34;19.50;;;11.88;;
14732;SDS011;7457;50.960;6.830;2023-11-21T00:12:01;15.02;;;10.93;;
14732;SDS011;7457;50.960;6.830;2023-11-21T00:14:27;16.75;;;11.43;;
14732;SDS011;7457;50.960;6.830;2023-11-21T00:16:53;16.00;;;12.15;;
14732;SDS011;7457;50.960;6.830;2023-11-21T00:19:19;20.60;;;11.00;;
14732;SDS011;7457;50.960;6.830;2023-11-21T00:21:44;17.90;;;11.88;;
14732;SDS011;7457;50.960;6.830;2023-11-21T00:24:11;14.82;;;11.07;;
14732;SDS011;7457;50.960;6.830;2023-11-21T00:26:38;18.00;;;11.65;;
14732;SDS011;7457;50.960;6.830;2023-11-21T00:29:05;18.10;;;12.40;;
14732;SDS011;7457;50.960;6.830;2023-11-21T00:31:33;20.30;;;12.55;;
14732;SDS011;7457;50.960;6.830;2023-11-21T00:34:04;20.48;;;13.18;;
14732;SDS011;7457;50.960;6.830;2023-11-21T00:36:30;16.70;;;12.05;;
14732;SDS011;7457;50.960;6.830;2023-11-21T00:38:57;17.90;;;12.98;;
14732;SDS011;7457;50.960;6.830;2023-11-21T00:41:23;19.90;;;12.77;;
14732;SDS011;7457;50.960;6.830;2023-11-21T00:43:48;19.70;;;12.20;;
14732;SDS011;7457;50.960;6.830;2023-11-21T00:46:14;20.38;;;13.98;;
14732;SDS011;7457;50.960;6.830;2023-11-21T00:48:40;23.08;;;14.25;;
14732;SDS011;7457;50.960;6.830;2023-11-21T00:51:05;21.52;;;14.00;;
14732;SDS011;7457;50.960;6.830;2023-11-21T00:53:31;22.77;;;14.25;;
14732;SDS011;7457;50.960;6.830;2023-11-21T00:55:57;23.83;;;13.77;;
14732;SDS011;7457;50.960;6.830;2023-11-21T00:58:23;22.35;;;13.57;;
14732;SDS011;7457;50.960;6.830;2023-11-21T01:00:49;20.38;;;13.65;;
14732;SDS011;7457;50.960;6.830;2023-11-21T01:03:15;19.30;;;12.50;;
14732;SDS011;7457;50.960;6.830;2023-11-21T01:05:41;27.08;;;14.57;;
14732;SDS011;7457;50.960;6.830;2023-11-21T01:08:06;16.73;;;13.20;;
14732;SDS011;7457;50.960;6.830;2023-11-21T01:10:32;17.70;;;13.32;;
14732;SDS011;7457;50.960;6.830;2023-11-21T01:12:59;18.23;;;13.82;;
14732;SDS011;7457;50.960;6.830;2023-11-21T01:15:24;18.58;;;13.77;;
14732;SDS011;7457;50.960;6.830;2023-11-21T01:17:51;23.02;;;14.05;;
14732;SDS011;7457;50.960;6.830;2023-11-21T01:20:17;22.10;;;14.60;;
14732;SDS011;7457;50.960;6.830;2023-11-21T01:22:43;19.77;;;13.35;;
14732;SDS011;7457;50.960;6.830;2023-11-21T01:25:09;19.35;;;14.23;;
14732;SDS011;7457;50.960;6.830;2023-11-21T01:27:36;26.02;;;14.45;;
14732;SDS011;7457;50.960;6.830;2023-11-21T01:30:04;20.35;;;13.40;;
14732;SDS011;7457;50.960;6.830;2023-11-21T01:32:32;18.08;;;14.50;;
14732;SDS011;7457;50.960;6.830;2023-11-21T01:34:59;22.40;;;13.52;;
14732;SDS011;7457;50.960;6.830;2023-11-21T01:37:25;22.50;;;14.05;;
14732;SDS011;7457;50.960;6.830;2023-11-21T01:39:53;24.80;;;13.57;;
14732;SDS011;7457;50.960;6.830;2023-11-21T01:42:20;19.88;;;14.60;;
14732;SDS011;7457;50.960;6.830;2023-11-21T01:44:46;20.80;;;12.23;;
14732;SDS011;7457;50.960;6.830;2023-11-21T01:47:12;19.85;;;12.98;;
14732;SDS011;7457;50.960;6.830;2023-11-21T01:49:38;24.02;;;13.30;;
14732;SDS011;7457;50.960;6.830;2023-11-21T01:52:04;18.55;;;13.07;;
14732;SDS011;7457;50.960;6.830;2023-11-21T01:54:31;24.60;;;14.48;;
14732;SDS011;7457;50.960;6.830;2023-11-21T01:57:00;20.90;;;12.70;;
14732;SDS011;7457;50.960;6.830;2023-11-21T01:59:27;24.17;;;13.23;;
14732;SDS011;7457;50.960;6.830;2023-11-21T02:02:02;22.63;;;12.68;;
14732;SDS011;7457;50.960;6.830;2023-11-21T02:04:30;24.08;;;12.80;;
14732;SDS011;7457;50.960;6.830;2023-11-21T02:06:56;23.52;;;14.02;;
14732;SDS011;7457;50.960;6.830;2023-11-21T02:09:26;22.48;;;12.88;;
14732;SDS011;7457;50.960;6.830;2023-11-21T02:11:52;24.75;;;15.05;;
14732;SDS011;7457;50.960;6.830;2023-11-21T02:14:19;22.52;;;13.43;;
14732;SDS011;7457;50.960;6.830;2023-11-21T02:16:50;22.45;;;15.10;;
14732;SDS011;7457;50.960;6.830;2023-11-21T02:19:20;28.50;;;14.75;;
14732;SDS011;7457;50.960;6.830;2023-11-21T02:21:50;25.35;;;16.98;;
14732;SDS011;7457;50.960;6.830;2023-11-21T02:24:20;24.95;;;16.90;;
14732;SDS011;7457;50.960;6.830;2023-11-21T02:26:47;23.63;;;15.70;;
14732;SDS011;7457;50.960;6.830;2023-11-21T02:29:13;27.55;;;16.50;;
14732;SDS011;7457;50.960;6.830;2023-11-21T02:31:41;26.80;;;17.77;;
14732;SDS011;7457;50.960;6.830;2023-11-21T02:34:16;23.75;;;16.90;;
14732;SDS011;7457;50.960;6.830;2023-11-21T02:36:43;24.15;;;16.95;;
14732;SDS011;7457;50.960;6.830;2023-11-21T02:39:09;24.48;;;16.15;;
14732;SDS011;7457;50.960;6.830;2023-11-21T02:41:36;22.92;;;15.75;;
14732;SDS011;7457;50.960;6.830;2023-11-21T02:44:03;27.27;;;16.23;;
14732;SDS011;7457;50.960;6.830;2023-11-21T02:46:31;28.90;;;16.65;;
14732;SDS011;7457;50.960;6.830;2023-11-21T02:48:58;25.48;;;16.60;;
14732;SDS011;7457;50.960;6.830;2023-11-21T02:51:33;22.77;;;16.08;;
14732;SDS011;7457;50.960;6.830;2023-11-21T02:53:58;25.33;;;16.48;;
14732;SDS011;7457;50.960;6.830;2023-11-21T02:56:26;24.33;;;16.63;;
14732;SDS011;7457;50.960;6.830;2023-11-21T02:58:51;23.27;;;15.73;;
14732;SDS011;7457;50.960;6.830;2023-11-21T03:01:17;26.90;;;17.13;;
14732;SDS011;7457;50.960;6.830;2023-11-21T03:03:43;25.30;;;16.30;;
14732;SDS011;7457;50.960;6.830;2023-11-21T03:06:09;27.50;;;16.33;;
14732;SDS011;7457;50.960;6.830;2023-11-21T03:08:35;25.02;;;17.45;;
14732;SDS011;7457;50.960;6.830;2023-11-21T03:11:00;32.28;;;17.50;;
14732;SDS011;7457;50.960;6.830;2023-11-21T03:13:28;27.35;;;16.20;;
14732;SDS011;7457;50.960;6.830;2023-11-21T03:15:54;28.73;;;16.92;;
14732;SDS011;7457;50.960;6.830;2023-11-21T03:18:19;30.17;;;16.85;;
14732;SDS011;7457;50.960;6.830;2023-11-21T03:20:47;29.83;;;18.60;;
14732;SDS011;7457;50.960;6.830;2023-11-21T03:23:13;32.70;;;18.45;;
14732;SDS011;7457;50.960;6.830;2023-11-21T03:25:38;28.48;;;16.80;;
14732;SDS011;7457;50.960;6.830;2023-11-21T03:28:04;26.83;;;16.92;;
14732;SDS011;7457;50.960;6.830;2023-11-21T03:30:30;25.15;;;16.33;;
14732;SDS011;7457;50.960;6.830;2023-11-21T03:32:55;23.17;;;16.30;;
14732;SDS011;7457;50.960;6.830;2023-11-21T03:35:21;25.33;;;16.67;;
14732;SDS011;7457;50.960;6.830;2023-11-21T03:37:48;26.77;;;16.10;;
14732;SDS011;7457;50.960;6.830;2023-11-21T03:40:13;26.35;;;17.23;;
14732;SDS011;7457;50.960;6.830;2023-11-21T03:42:39;25.45;;;15.73;;
14732;SDS011;7457;50.960;6.830;2023-11-21T03:45:05;26.73;;;16.60;;
14732;SDS011;7457;50.960;6.830;2023-11-21T03:47:31;21.88;;;15.45;;
14732;SDS011;7457;50.960;6.830;2023-11-21T03:49:57;23.15;;;16.08;;
14732;SDS011;7457;50.960;6.830;2023-11-21T03:52:23;22.45;;;15.50;;
14732;SDS011;7457;50.960;6.830;2023-11-21T03:54:49;26.90;;;15.25;;
14732;SDS011;7457;50.960;6.830;2023-11-21T03:57:15;24.65;;;14.95;;
14732;SDS011;7457;50.960;6.830;2023-11-21T03:59:41;23.70;;;13.98;;
14732;SDS011;7457;50.960;6.830;2023-11-21T04:02:07;25.17;;;15.30;;
14732;SDS011;7457;50.960;6.830;2023-11-21T04:04:33;26.90;;;14.52;;
14732;SDS011;7457;50.960;6.830;2023-11-21T04:06:59;22.25;;;13.32;;
14732;SDS011;7457;50.960;6.830;2023-11-21T04:09:25;24.23;;;14.02;;
14732;SDS011;7457;50.960;6.830;2023-11-21T04:11:51;22.00;;;14.20;;
14732;SDS011;7457;50.960;6.830;2023-11-21T04:14:17;26.25;;;13.70;;
14732;SDS011;7457;50.960;6.830;2023-11-21T04:16:43;22.85;;;15.20;;
14732;SDS011;7457;50.960;6.830;2023-11-21T04:19:09;21.90;;;13.70;;
14732;SDS011;7457;50.960;6.830;2023-11-21T04:21:36;20.20;;;13.77;;
14732;SDS011;7457;50.960;6.830;2023-11-21T04:24:02;24.25;;;13.73;;
14732;SDS011;7457;50.960;6.830;2023-11-21T04:26:28;22.00;;;13.52;;
14732;SDS011;7457;50.960;6.830;2023-11-21T04:28:53;21.90;;;13.38;;
14732;SDS011;7457;50.960;6.830;2023-11-21T04:31:19;19.98;;;12.65;;
14732;SDS011;7457;50.960;6.830;2023-11-21T04:33:44;21.58;;;12.82;;
14732;SDS011;7457;50.960;6.830;2023-11-21T04:36:10;27.40;;;13.88;;
14732;SDS011;7457;50.960;6.830;2023-11-21T04:38:36;21.08;;;13.75;;
14732;SDS011;7457;50.960;6.830;2023-11-21T04:41:01;23.00;;;12.15;;
14732;SDS011;7457;50.960;6.830;2023-11-21T04:43:27;22.27;;;13.75;;
14732;SDS011;7457;50.960;6.830;2023-11-21T04:45:53;21.58;;;12.52;;
14732;SDS011;7457;50.960;6.830;2023-11-21T04:48:19;21.08;;;11.77;;
14732;SDS011;7457;50.960;6.830;2023-11-21T04:50:45;21.05;;;11.85;;
14732;SDS011;7457;50.960;6.830;2023-11-21T04:53:11;18.23;;;11.65;;
14732;SDS011;7457;50.960;6.830;2023-11-21T04:55:39;18.25;;;10.77;;
14732;SDS011;7457;50.960;6.830;2023-11-21T04:58:08;18.05;;;10.95;;
14732;SDS011;7457;50.960;6.830;2023-11-21T05:00:34;16.92;;;10.40;;
14732;SDS011;7457;50.960;6.830;2023-11-21T05:03:01;20.45;;;10.68;;
14732;SDS011;7457;50.960;6.830;2023-11-21T05:05:28;17.20;;;10.63;;
14732;SDS011;7457;50.960;6.830;2023-11-21T05:07:55;16.15;;;10.55;;
14732;SDS011;7457;50.960;6.830;2023-11-21T05:10:20;18.15;;;11.38;;
14732;SDS011;7457;50.960;6.830;2023-11-21T05:12:47;18.10;;;10.35;;
14732;SDS011;7457;50.960;6.830;2023-11-21T05:15:15;19.05;;;11.68;;
14732;SDS011;7457;50.960;6.830;2023-11-21T05:17:42;20.90;;;12.48;;
14732;SDS011;7457;50.960;6.830;2023-11-21T05:20:12;23.17;;;12.43;;
14732;SDS011;7457;50.960;6.830;2023-11-21T05:22:39;22.30;;;12.05;;
14732;SDS011;7457;50.960;6.830;2023-11-21T05:25:05;22.20;;;13.07;;
14732;SDS011;7457;50.960;6.830;2023-11-21T05:27:36;22.50;;;12.82;;
14732;SDS011;7457;50.960;6.830;2023-11-21T05:30:02;19.70;;;11.85;;
14732;SDS011;7457;50.960;6.830;2023-11-21T05:32:30;21.83;;;12.50;;
14732;SDS011;7457;50.960;6.830;2023-11-21T05:34:56;19.38;;;12.25;;
14732;SDS011;7457;50.960;6.830;2023-11-21T05:37:22;23.05;;;13.38;;
14732;SDS011;7457;50.960;6.830;2023-11-21T05:39:48;26.20;;;12.25;;
14732;SDS011;7457;50.960;6.830;2023-11-21T05:42:14;23.05;;;12.63;;
14732;SDS011;7457;50.960;6.830;2023-11-21T05:44:43;21.30;;;13.13;;
14732;SDS011;7457;50.960;6.830;2023-11-21T05:47:08;19.35;;;12.50;;
14732;SDS011;7457;50.960;6.830;2023-11-21T05:49:34;24.58;;;13.38;;
14732;SDS011;7457;50.960;6.830;2023-11-21T05:52:01;19.23;;;12.70;;
14732;SDS011;7457;50.960;6.830;2023-11-21T05:54:26;18.85;;;11.95;;
14732;SDS011;7457;50.960;6.830;2023-11-21T05:56:52;21.48;;;13.63;;
14732;SDS011;7457;50.960;6.830;2023-11-21T05:59:17;23.67;;;13.32;;
14732;SDS011;7457;50.960;6.830;2023-11-21T06:01:44;27.58;;;14.20;;
14732;SDS011;7457;50.960;6.830;2023-11-21T06:04:10;23.63;;;14.32;;
14732;SDS011;7457;50.960;6.830;2023-11-21T06:06:36;25.40;;;15.00;;
14732;SDS011;7457;50.960;6.830;2023-11-21T06:09:02;26.30;;;14.32;;
14732;SDS011;7457;50.960;6.830;2023-11-21T06:11:28;29.63;;;14.60;;
14732;SDS011;7457;50.960;6.830;2023-11-21T06:13:54;26.98;;;14.75;;
14732;SDS011;7457;50.960;6.830;2023-11-21T06:16:20;24.90;;;14.93;;
14732;SDS011;7457;50.960;6.830;2023-11-21T06:18:46;32.10;;;15.40;;
14732;SDS011;7457;50.960;6.830;2023-11-21T06:21:11;29.58;;;16.13;;
14732;SDS011;7457;50.960;6.830;2023-11-21T06:23:38;31.20;;;17.13;;
14732;SDS011;7457;50.960;6.830;2023-11-21T06:26:04;31.80;;;17.50;;
14732;SDS011;7457;50.960;6.830;2023-11-21T06:28:31;27.38;;;17.23;;
14732;SDS011;7457;50.960;6.830;2023-11-21T06:30:57;32.10;;;17.17;;
14732;SDS011;7457;50.960;6.830;2023-11-21T06:33:23;34.97;;;19.85;;
14732;SDS011;7457;50.960;6.830;2023-11-21T06:35:50;35.20;;;18.60;;
14732;SDS011;7457;50.960;6.830;2023-11-21T06:38:16;31.65;;;17.95;;
14732;SDS011;7457;50.960;6.830;2023-11-21T06:40:42;33.35;;;18.25;;
14732;SDS011;7457;50.960;6.830;2023-11-21T06:43:09;30.17;;;17.90;;
14732;SDS011;7457;50.960;6.830;2023-11-21T06:45:35;32.63;;;17.95;;
14732;SDS011;7457;50.960;6.830;2023-11-21T06:48:00;38.70;;;19.55;;
14732;SDS011;7457;50.960;6.830;2023-11-21T06:50:26;34.28;;;17.45;;
14732;SDS011;7457;50.960;6.830;2023-11-21T06:52:51;33.60;;;18.92;;
14732;SDS011;7457;50.960;6.830;2023-11-21T06:55:17;36.63;;;20.05;;
14732;SDS011;7457;50.960;6.830;2023-11-21T06:57:43;37.80;;;19.73;;
14732;SDS011;7457;50.960;6.830;2023-11-21T07:00:09;31.42;;;17.85;;
14732;SDS011;7457;50.960;6.830;2023-11-21T07:02:36;39.17;;;18.60;;
14732;SDS011;7457;50.960;6.830;2023-11-21T07:05:02;34.65;;;18.33;;
14732;SDS011;7457;50.960;6.830;2023-11-21T07:07:28;30.48;;;18.75;;
14732;SDS011;7457;50.960;6.830;2023-11-21T07:09:53;36.40;;;19.25;;
14732;SDS011;7457;50.960;6.830;2023-11-21T07:12:19;28.27;;;17.80;;
14732;SDS011;7457;50.960;6.830;2023-11-21T07:14:45;33.05;;;17.55;;
14732;SDS011;7457;50.960;6.830;2023-11-21T07:17:11;30.48;;;18.95;;
14732;SDS011;7457;50.960;6.830;2023-11-21T07:19:37;29.75;;;15.98;;
14732;SDS011;7457;50.960;6.830;2023-11-21T07:22:03;37.97;;;20.42;;
14732;SDS011;7457;50.960;6.830;2023-11-21T07:24:30;35.10;;;19.63;;
14732;SDS011;7457;50.960;6.830;2023-11-21T07:26:57;32.97;;;20.08;;
14732;SDS011;7457;50.960;6.830;2023-11-21T07:29:23;35.38;;;19.55;;
14732;SDS011;7457;50.960;6.830;2023-11-21T07:31:51;36.47;;;21.15;;
14732;SDS011;7457;50.960;6.830;2023-11-21T07:34:17;42.13;;;21.75;;
14732;SDS011;7457;50.960;6.830;2023-11-21T07:36:44;37.53;;;19.67;;
14732;SDS011;7457;50.960;6.830;2023-11-21T07:39:10;37.63;;;20.40;;
14732;SDS011;7457;50.960;6.830;2023-11-21T07:41:36;32.45;;;19.45;;
14732;SDS011;7457;50.960;6.830;2023-11-21T07:44:03;38.78;;;21.05;;
14732;SDS011;7457;50.960;6.830;2023-11-21T07:46:28;41.30;;;21.92;;
14732;SDS011;7457;50.960;6.830;2023-11-21T07:48:54;35.47;;;20.73;;
14732;SDS011;7457;50.960;6.830;2023-11-21T07:51:20;40.13;;;21.27;;
14732;SDS011;7457;50.960;6.830;2023-11-21T07:53:45;42.10;;;20.45;;
14732;SDS011;7457;50.960;6.830;2023-11-21T07:56:11;36.33;;;21.10;;
14732;SDS011;7457;50.960;6.830;2023-11-21T07:58:38;38.60;;;21.02;;
14732;SDS011;7457;50.960;6.830;2023-11-21T08:01:03;35.92;;;22.13;;
14732;SDS011;7457;50.960;6.830;2023-11-21T08:03:29;39.58;;;20.35;;
14732;SDS011;7457;50.960;6.830;2023-11-21T08:05:59;38.05;;;22.50;;
14732;SDS011;7457;50.960;6.830;2023-11-21T08:08:25;35.33;;;21.35;;
14732;SDS011;7457;50.960;6.830;2023-11-21T08:10:51;35.03;;;20.08;;
14732;SDS011;7457;50.960;6.830;2023-11-21T08:13:26;37.03;;;19.90;;
14732;SDS011;7457;50.960;6.830;2023-11-21T08:15:55;37.80;;;21.33;;
14732;SDS011;7457;50.960;6.830;2023-11-21T08:18:26;38.47;;;20.73;;
14732;SDS011;7457;50.960;6.830;2023-11-21T08:20:52;37.85;;;20.80;;
14732;SDS011;7457;50.960;6.830;2023-11-21T08:23:20;44.20;;;22.65;;
14732;SDS011;7457;50.960;6.830;2023-11-21T08:25:45;41.80;;;21.83;;
14732;SDS011;7457;50.960;6.830;2023-11-21T08:28:12;39.03;;;23.00;;
14732;SDS011;7457;50.960;6.830;2023-11-21T08:30:41;45.47;;;23.58;;
14732;SDS011;7457;50.960;6.830;2023-11-21T08:33:07;38.22;;;23.33;;
14732;SDS011;7457;50.960;6.830;2023-11-21T08:35:37;40.35;;;20.88;;
14732;SDS011;7457;50.960;6.830;2023-11-21T08:38:03;40.10;;;21.77;;
14732;SDS011;7457;50.960;6.830;2023-11-21T08:40:29;41.42;;;21.58;;
14732;SDS011;7457;50.960;6.830;2023-11-21T08:42:55;37.05;;;20.70;;
14732;SDS011;7457;50.960;6.830;2023-11-21T08:45:21;44.78;;;22.23;;
14732;SDS011;7457;50.960;6.830;2023-11-21T08:47:47;41.58;;;21.95;;
14732;SDS011;7457;50.960;6.830;2023-11-21T08:50:13;40.63;;;21.45;;
14732;SDS011;7457;50.960;6.830;2023-11-21T08:52:39;37.85;;;21.60;;
14732;SDS011;7457;50.960;6.830;2023-11-21T08:55:05;39.13;;;21.00;;
14732;SDS011;7457;50.960;6.830;2023-11-21T08:57:37;38.05;;;21.15;;
14732;SDS011;7457;50.960;6.830;2023-11-21T09:00:04;45.13;;;21.63;;
14732;SDS011;7457;50.960;6.830;2023-11-21T09:02:36;37.60;;;20.02;;
14732;SDS011;7457;50.960;6.830;2023-11-21T09:05:03;41.05;;;21.80;;
14732;SDS011;7457;50.960;6.830;2023-11-21T09:07:29;38.95;;;19.98;;
14732;SDS011;7457;50.960;6.830;2023-11-21T09:09:55;39.63;;;19.70;;
14732;SDS011;7457;50.960;6.830;2023-11-21T09:12:21;42.85;;;21.88;;
14732;SDS011;7457;50.960;6.830;2023-11-21T09:14:47;37.53;;;19.63;;
14732;SDS011;7457;50.960;6.830;2023-11-21T09:17:13;37.35;;;21.00;;
14732;SDS011;7457;50.960;6.830;2023-11-21T09:19:39;41.10;;;20.95;;
14732;SDS011;7457;50.960;6.830;2023-11-21T09:22:06;36.88;;;20.75;;
14732;SDS011;7457;50.960;6.830;2023-11-21T09:24:35;38.05;;;20.55;;
14732;SDS011;7457;50.960;6.830;2023-11-21T09:27:00;40.75;;;20.80;;
14732;SDS011;7457;50.960;6.830;2023-11-21T09:29:27;37.17;;;21.13;;
14732;SDS011;7457;50.960;6.830;2023-11-21T09:31:52;38.65;;;20.05;;
14732;SDS011;7457;50.960;6.830;2023-11-21T09:34:19;39.00;;;21.05;;
14732;SDS011;7457;50.960;6.830;2023-11-21T09:36:48;39.42;;;20.42;;
14732;SDS011;7457;50.960;6.830;2023-11-21T09:39:14;42.25;;;21.42;;
14732;SDS011;7457;50.960;6.830;2023-11-21T09:44:13;43.33;;;20.95;;
14732;SDS011;7457;50.960;6.830;2023-11-21T09:46:42;39.03;;;22.85;;
14732;SDS011;7457;50.960;6.830;2023-11-21T09:49:11;37.00;;;18.48;;
14732;SDS011;7457;50.960;6.830;2023-11-21T09:51:44;31.42;;;18.10;;
14732;SDS011;7457;50.960;6.830;2023-11-21T09:54:13;33.63;;;16.50;;
14732;SDS011;7457;50.960;6.830;2023-11-21T09:56:41;37.38;;;17.60;;
14732;SDS011;7457;50.960;6.830;2023-11-21T09:59:07;30.33;;;16.70;;
14732;SDS011;7457;50.960;6.830;2023-11-21T10:01:38;29.25;;;15.23;;
14732;SDS011;7457;50.960;6.830;2023-11-21T10:04:05;28.48;;;16.60;;
14732;SDS011;7457;50.960;6.830;2023-11-21T10:06:36;32.05;;;17.40;;
14732;SDS011;7457;50.960;6.830;2023-11-21T10:09:08;36.72;;;17.52;;
14732;SDS011;7457;50.960;6.830;2023-11-21T10:11:40;32.47;;;16.65;;
14732;SDS011;7457;50.960;6.830;2023-11-21T10:14:06;37.85;;;17.92;;
14732;SDS011;7457;50.960;6.830;2023-11-21T10:16:35;37.58;;;18.05;;
14732;SDS011;7457;50.960;6.830;2023-11-21T10:19:04;32.22;;;16.50;;
14732;SDS011;7457;50.960;6.830;2023-11-21T10:21:34;32.50;;;16.63;;
14732;SDS011;7457;50.960;6.830;2023-11-21T10:24:00;37.20;;;17.90;;
14732;SDS011;7457;50.960;6.830;2023-11-21T10:26:26;39.22;;;20.60;;
14732;SDS011;7457;50.960;6.830;2023-11-21T10:28:59;35.53;;;18.85;;
14732;SDS011;7457;50.960;6.830;2023-11-21T10:31:29;35.05;;;17.00;;
14732;SDS011;7457;50.960;6.830;2023-11-21T10:34:10;31.85;;;17.13;;
14732;SDS011;7457;50.960;6.830;2023-11-21T10:36:43;39.53;;;17.80;;
14732;SDS011;7457;50.960;6.830;2023-11-21T10:39:09;37.58;;;17.27;;
14732;SDS011;7457;50.960;6.830;2023-11-21T10:41:38;42.55;;;19.38;;
14732;SDS011;7457;50.960;6.830;2023-11-21T10:44:04;34.25;;;16.55;;
14732;SDS011;7457;50.960;6.830;2023-11-21T10:46:34;48.22;;;25.58;;
14732;SDS011;7457;50.960;6.830;2023-11-21T10:49:00;34.80;;;19.67;;
14732;SDS011;7457;50.960;6.830;2023-11-21T10:51:27;34.90;;;16.50;;
14732;SDS011;7457;50.960;6.830;2023-11-21T10:53:53;38.85;;;17.55;;
14732;SDS011;7457;50.960;6.830;2023-11-21T10:56:19;35.75;;;18.13;;
14732;SDS011;7457;50.960;6.830;2023-11-21T10:58:49;31.85;;;15.50;;
14732;SDS011;7457;50.960;6.830;2023-11-21T11:01:18;29.95;;;15.70;;
14732;SDS011;7457;50.960;6.830;2023-11-21T11:03:46;29.83;;;14.13;;
14732;SDS011;7457;50.960;6.830;2023-11-21T11:06:12;31.15;;;15.27;;
14732;SDS011;7457;50.960;6.830;2023-11-21T11:08:40;29.00;;;15.38;;
14732;SDS011;7457;50.960;6.830;2023-11-21T11:11:06;30.90;;;15.10;;
14732;SDS011;7457;50.960;6.830;2023-11-21T11:13:32;33.40;;;17.00;;
14732;SDS011;7457;50.960;6.830;2023-11-21T11:15:58;34.70;;;16.92;;
14732;SDS011;7457;50.960;6.830;2023-11-21T11:18:29;35.53;;;16.70;;
14732;SDS011;7457;50.960;6.830;2023-11-21T11:20:58;38.10;;;18.25;;
14732;SDS011;7457;50.960;6.830;2023-11-21T11:23:54;32.28;;;16.63;;
14732;SDS011;7457;50.960;6.830;2023-11-21T11:35:00;37.28;;;18.92;;
14732;SDS011;7457;50.960;6.830;2023-11-21T11:37:31;38.20;;;18.15;;
14732;SDS011;7457;50.960;6.830;2023-11-21T11:39:57;32.25;;;17.05;;
14732;SDS011;7457;50.960;6.830;2023-11-21T11:42:25;32.08;;;17.67;;
14732;SDS011;7457;50.960;6.830;2023-11-21T11:44:52;35.05;;;18.48;;
14732;SDS011;7457;50.960;6.830;2023-11-21T11:47:20;37.65;;;17.40;;
14732;SDS011;7457;50.960;6.830;2023-11-21T11:49:57;35.72;;;17.73;;
14732;SDS011;7457;50.960;6.830;2023-11-21T11:55:05;25.77;;;13.65;;
14732;SDS011;7457;50.960;6.830;2023-11-21T11:57:32;28.58;;;14.48;;
14732;SDS011;7457;50.960;6.830;2023-11-21T12:00:16;29.55;;;14.77;;
14732;SDS011;7457;50.960;6.830;2023-11-21T12:02:50;27.77;;;14.30;;
14732;SDS011;7457;50.960;6.830;2023-11-21T12:05:18;23.77;;;14.32;;
14732;SDS011;7457;50.960;6.830;2023-11-21T12:07:51;27.30;;;15.00;;
14732;SDS011;7457;50.960;6.830;2023-11-21T12:10:19;24.33;;;13.73;;
14732;SDS011;7457;50.960;6.830;2023-11-21T12:12:51;27.15;;;13.77;;
14732;SDS011;7457;50.960;6.830;2023-11-21T12:15:19;23.63;;;12.48;;
14732;SDS011;7457;50.960;6.830;2023-11-21T12:17:45;25.17;;;14.75;;
14732;SDS011;7457;50.960;6.830;2023-11-21T12:20:12;24.73;;;13.43;;
14732;SDS011;7457;50.960;6.830;2023-11-21T12:22:45;28.08;;;13.77;;
14732;SDS011;7457;50.960;6.830;2023-11-21T12:25:19;25.38;;;14.63;;
14732;SDS011;7457;50.960;6.830;2023-11-21T12:27:47;25.02;;;13.25;;
14732;SDS011;7457;50.960;6.830;2023-11-21T12:30:17;31.02;;;15.63;;
14732;SDS011;7457;50.960;6.830;2023-11-21T12:32:54;29.30;;;13.48;;
14732;SDS011;7457;50.960;6.830;2023-11-21T12:35:27;27.27;;;14.45;;
14732;SDS011;7457;50.960;6.830;2023-11-21T12:38:00;28.25;;;12.85;;
14732;SDS011;7457;50.960;6.830;2023-11-21T12:40:29;25.02;;;13.35;;
14732;SDS011;7457;50.960;6.830;2023-11-21T12:42:56;26.15;;;13.57;;
14732;SDS011;7457;50.960;6.830;2023-11-21T12:50:25;25.00;;;11.95;;
14732;SDS011;7457;50.960;6.830;2023-11-21T12:53:29;23.70;;;12.45;;
14732;SDS011;7457;50.960;6.830;2023-11-21T12:55:48;20.15;;;11.23;;
14732;SDS011;7457;50.960;6.830;2023-11-21T12:58:16;28.00;;;12.55;;
14732;SDS011;7457;50.960;6.830;2023-11-21T13:00:46;22.25;;;11.48;;
14732;SDS011;7457;50.960;6.830;2023-11-21T13:03:13;21.23;;;11.50;;
14732;SDS011;7457;50.960;6.830;2023-11-21T13:05:44;23.42;;;11.85;;
14732;SDS011;7457;50.960;6.830;2023-11-21T13:08:12;23.73;;;12.40;;
14732;SDS011;7457;50.960;6.830;2023-11-21T13:10:39;22.45;;;12.02;;
14732;SDS011;7457;50.960;6.830;2023-11-21T13:13:07;20.88;;;11.20;;
14732;SDS011;7457;50.960;6.830;2023-11-21T13:15:38;20.80;;;10.07;;
14732;SDS011;7457;50.960;6.830;2023-11-21T13:18:05;18.92;;;9.60;;
14732;SDS011;7457;50.960;6.830;2023-11-21T13:20:32;18.83;;;10.30;;
14732;SDS011;7457;50.960;6.830;2023-11-21T13:22:58;21.27;;;10.35;;
14732;SDS011;7457;50.960;6.830;2023-11-21T13:25:25;22.63;;;12.23;;
14732;SDS011;7457;50.960;6.830;2023-11-21T13:27:52;18.35;;;10.40;;
14732;SDS011;7457;50.960;6.830;2023-11-21T13:30:21;21.08;;;11.45;;
14732;SDS011;7457;50.960;6.830;2023-11-21T13:32:52;25.85;;;13.30;;
14732;SDS011;7457;50.960;6.830;2023-11-21T13:35:27;21.48;;;13.18;;
14732;SDS011;7457;50.960;6.830;2023-11-21T13:38:17;34.97;;;16.30;;
14732;SDS011;7457;50.960;6.830;2023-11-21T13:40:47;37.05;;;18.05;;
14732;SDS011;7457;50.960;6.830;2023-11-21T13:43:17;34.65;;;17.13;;
14732;SDS011;7457;50.960;6.830;2023-11-21T13:45:45;30.00;;;16.10;;
14732;SDS011;7457;50.960;6.830;2023-11-21T13:48:12;30.17;;;15.57;;
14732;SDS011;7457;50.960;6.830;2023-11-21T13:50:47;27.27;;;14.93;;
14732;SDS011;7457;50.960;6.830;2023-11-21T13:53:33;27.83;;;15.23;;
14732;SDS011;7457;50.960;6.830;2023-11-21T13:56:02;24.83;;;14.30;;
14732;SDS011;7457;50.960;6.830;2023-11-21T13:58:28;26.67;;;13.35;;
14732;SDS011;7457;50.960;6.830;2023-11-21T14:01:09;29.13;;;15.00;;
14732;SDS011;7457;50.960;6.830;2023-11-21T14:03:59;28.77;;;15.20;;
14732;SDS011;7457;50.960;6.830;2023-11-21T14:06:40;27.40;;;15.45;;
14732;SDS011;7457;50.960;6.830;2023-11-21T14:09:23;26.70;;;16.67;;
14732;SDS011;7457;50.960;6.830;2023-11-21T14:11:57;26.20;;;14.43;;
14732;SDS011;7457;50.960;6.830;2023-11-21T14:14:25;27.70;;;15.35;;
14732;SDS011;7457;50.960;6.830;2023-11-21T14:16:52;25.17;;;15.05;;
14732;SDS011;7457;50.960;6.830;2023-11-21T14:19:19;27.05;;;16.33;;
14732;SDS011;7457;50.960;6.830;2023-11-21T14:21:46;29.77;;;15.10;;
14732;SDS011;7457;50.960;6.830;2023-11-21T14:24:13;32.25;;;14.40;;
14732;SDS011;7457;50.960;6.830;2023-11-21T14:26:43;29.50;;;14.23;;
14732;SDS011;7457;50.960;6.830;2023-11-21T14:29:13;35.88;;;17.60;;
14732;SDS011;7457;50.960;6.830;2023-11-21T14:31:42;30.23;;;15.63;;
14732;SDS011;7457;50.960;6.830;2023-11-21T14:34:08;24.45;;;14.77;;
14732;SDS011;7457;50.960;6.830;2023-11-21T14:36:37;27.08;;;13.15;;
14732;SDS011;7457;50.960;6.830;2023-11-21T14:39:04;24.55;;;13.15;;
14732;SDS011;7457;50.960;6.830;2023-11-21T14:41:34;27.60;;;13.75;;
14732;SDS011;7457;50.960;6.830;2023-11-21T14:44:02;26.38;;;13.80;;
14732;SDS011;7457;50.960;6.830;2023-11-21T14:46:29;27.50;;;13.57;;
14732;SDS011;7457;50.960;6.830;2023-11-21T14:48:54;23.10;;;13.00;;
14732;SDS011;7457;50.960;6.830;2023-11-21T14:51:36;24.90;;;13.45;;
14732;SDS011;7457;50.960;6.830;2023-11-21T14:54:22;27.58;;;13.75;;
14732;SDS011;7457;50.960;6.830;2023-11-21T14:57:04;30.25;;;13.70;;